createdAt,value
2019-03-06T00:00:23.697Z,75.30
2019-03-06T00:02:51.952Z,75.30
2019-03-06T00:05:20.195Z,75.20
2019-03-06T00:07:48.443Z,74.90
2019-03-06T00:10:22.534Z,75.10
2019-03-06T00:12:50.821Z,75.10
2019-03-06T00:15:19.072Z,74.90
2019-03-06T00:17:47.334Z,75.30
2019-03-06T00:20:15.939Z,75.40
2019-03-06T00:22:44.184Z,75.40
2019-03-06T00:25:12.506Z,76.20
2019-03-06T00:27:40.780Z,75.20
2019-03-06T00:30:11.827Z,75.30
2019-03-06T00:32:40.060Z,75.10
2019-03-06T00:35:14.306Z,74.90
2019-03-06T00:37:42.555Z,74.80
2019-03-06T00:40:30.907Z,74.90
2019-03-06T00:42:59.135Z,74.90
2019-03-06T00:45:27.402Z,75.20
2019-03-06T00:47:55.636Z,75.10
2019-03-06T00:50:23.875Z,75.10
2019-03-06T00:52:52.162Z,74.90
2019-03-06T00:55:20.408Z,74.80
2019-03-06T00:57:48.655Z,74.90
2019-03-06T01:00:20.401Z,75.70
2019-03-06T01:02:48.730Z,74.90
2019-03-06T01:05:17.183Z,75.10
2019-03-06T01:07:45.456Z,75.00
2019-03-06T01:10:14.883Z,75.00
2019-03-06T01:12:43.124Z,75.20
2019-03-06T01:15:13.615Z,75.20
2019-03-06T01:17:41.867Z,75.00
2019-03-06T01:20:11.571Z,75.30
2019-03-06T01:22:39.817Z,75.00
2019-03-06T01:25:18.921Z,74.70
2019-03-06T01:27:47.261Z,74.70
2019-03-06T01:30:25.987Z,74.90
2019-03-06T01:33:01.522Z,74.90
2019-03-06T01:35:37.179Z,74.70
2019-03-06T01:38:10.291Z,74.70
2019-03-06T01:40:45.942Z,74.50
2019-03-06T01:43:18.552Z,74.40
2019-03-06T01:45:46.801Z,74.50
2019-03-06T01:48:15.421Z,74.60
2019-03-06T01:50:43.690Z,74.60
2019-03-06T01:53:11.957Z,74.60
2019-03-06T01:55:40.205Z,74.40
2019-03-06T01:58:08.462Z,74.50
2019-03-06T02:00:37.048Z,74.60
2019-03-06T02:03:05.299Z,74.70
2019-03-06T02:05:33.533Z,74.70
2019-03-06T02:08:01.795Z,74.70
2019-03-06T02:10:30.327Z,74.70
2019-03-06T02:12:58.584Z,74.50
2019-03-06T02:15:26.835Z,74.60
2019-03-06T02:17:55.109Z,74.60
2019-03-06T02:20:23.395Z,74.50
2019-03-06T02:22:51.658Z,74.70
2019-03-06T02:25:19.891Z,74.70
2019-03-06T02:27:48.118Z,74.60
2019-03-06T02:30:18.826Z,74.50
2019-03-06T02:32:47.123Z,74.60
2019-03-06T02:35:15.464Z,74.60
2019-03-06T02:37:43.773Z,74.60
2019-03-06T02:40:12.305Z,74.50
2019-03-06T02:42:40.554Z,74.60
2019-03-06T02:45:12.080Z,74.70
2019-03-06T02:47:40.388Z,74.70
2019-03-06T02:50:16.324Z,74.70
2019-03-06T02:52:44.638Z,74.70
2019-03-06T02:55:15.063Z,74.90
2019-03-06T02:58:01.233Z,74.90
2019-03-06T03:00:34.212Z,74.90
2019-03-06T03:03:07.402Z,74.90
2019-03-06T03:05:49.504Z,75.10
2019-03-06T03:08:17.842Z,75.20
2019-03-06T03:10:46.461Z,75.10
2019-03-06T03:13:14.714Z,75.10
2019-03-06T03:15:42.969Z,75.70
2019-03-06T03:18:11.377Z,75.30
2019-03-06T03:20:39.628Z,75.30
2019-03-06T03:23:07.874Z,75.20
2019-03-06T03:25:36.135Z,75.00
2019-03-06T03:28:04.409Z,75.30
2019-03-06T03:30:32.650Z,75.40
2019-03-06T03:33:00.991Z,75.70
2019-03-06T03:35:29.315Z,74.50
2019-03-06T03:37:57.746Z,75.20
2019-03-06T03:40:26.058Z,75.70
2019-03-06T03:42:54.377Z,75.20
2019-03-06T03:45:22.691Z,75.80
2019-03-06T03:47:50.952Z,75.00
2019-03-06T03:50:19.322Z,74.80
2019-03-06T03:52:47.553Z,74.80
2019-03-06T03:55:17.058Z,74.80
2019-03-06T03:57:45.289Z,74.80
2019-03-06T04:00:16.817Z,74.90
2019-03-06T04:02:45.053Z,74.50
2019-03-06T04:05:13.307Z,74.60
2019-03-06T04:07:41.569Z,74.50
2019-03-06T04:10:14.570Z,74.60
2019-03-06T04:12:42.826Z,74.70
2019-03-06T04:15:13.020Z,74.40
2019-03-06T04:17:41.272Z,74.40
2019-03-06T04:20:12.331Z,74.60
2019-03-06T04:22:40.586Z,74.50
2019-03-06T04:25:09.683Z,74.70
2019-03-06T04:27:37.975Z,74.80
2019-03-06T04:30:17.768Z,74.90
2019-03-06T04:32:46.075Z,75.00
2019-03-06T04:35:14.348Z,75.70
2019-03-06T04:37:42.768Z,75.10
2019-03-06T04:40:14.823Z,75.00
2019-03-06T04:42:43.066Z,75.30
2019-03-06T04:45:13.252Z,75.40
2019-03-06T04:47:41.576Z,75.50
2019-03-06T04:50:11.155Z,75.70
2019-03-06T04:52:39.425Z,75.70
2019-03-06T04:55:09.505Z,75.60
2019-03-06T04:57:37.811Z,75.80
2019-03-06T05:00:09.318Z,76.00
2019-03-06T05:02:37.577Z,75.90
2019-03-06T05:05:06.262Z,75.80
2019-03-06T05:07:34.505Z,75.90
2019-03-06T05:10:02.772Z,76.10
2019-03-06T05:12:31.017Z,76.10
2019-03-06T05:14:59.256Z,75.90
2019-03-06T05:17:29.150Z,75.80
2019-03-06T05:19:57.383Z,75.80
2019-03-06T05:22:25.661Z,75.60
2019-03-06T05:24:53.911Z,75.60
2019-03-06T05:27:22.159Z,76.00
2019-03-06T05:29:50.413Z,75.40
2019-03-06T05:32:27.521Z,75.30
2019-03-06T05:34:57.395Z,75.60
2019-03-06T05:37:45.592Z,75.20
2019-03-06T05:40:13.851Z,75.30
2019-03-06T05:42:42.155Z,75.20
2019-03-06T05:45:10.423Z,75.20
2019-03-06T05:47:38.685Z,75.30
2019-03-06T05:50:08.377Z,75.40
2019-03-06T05:52:36.620Z,75.50
2019-03-06T05:55:06.299Z,75.40
2019-03-06T05:57:34.574Z,75.30
2019-03-06T06:00:04.659Z,75.50
2019-03-06T06:02:32.922Z,75.50
2019-03-06T06:05:01.160Z,75.40
2019-03-06T06:07:29.396Z,75.40
2019-03-06T06:09:57.646Z,75.30
2019-03-06T06:12:25.929Z,75.20
2019-03-06T06:14:54.226Z,75.10
2019-03-06T06:17:22.684Z,75.10
2019-03-06T06:19:51.024Z,75.20
2019-03-06T06:22:26.970Z,75.00
2019-03-06T06:24:55.274Z,75.10
2019-03-06T06:27:23.510Z,75.00
2019-03-06T06:29:51.762Z,75.20
2019-03-06T06:32:20.023Z,75.20
2019-03-06T06:34:48.247Z,75.20
2019-03-06T06:37:16.602Z,75.10
2019-03-06T06:39:44.853Z,74.80
2019-03-06T06:42:13.287Z,74.80
2019-03-06T06:44:41.544Z,74.80
2019-03-06T06:47:09.780Z,74.80
2019-03-06T06:49:38.096Z,74.80
2019-03-06T06:52:12.163Z,74.70
2019-03-06T06:54:55.820Z,74.30
2019-03-06T06:57:41.705Z,74.20
2019-03-06T07:00:27.127Z,74.00
2019-03-06T07:03:12.137Z,74.70
2019-03-06T07:05:44.993Z,73.90
2019-03-06T07:08:23.741Z,73.90
2019-03-06T07:10:56.640Z,73.60
2019-03-06T07:13:32.376Z,73.60
2019-03-06T07:16:17.401Z,73.40
2019-03-06T07:19:03.643Z,73.70
2019-03-06T07:21:48.908Z,73.10
2019-03-06T07:24:24.644Z,72.60
2019-03-06T07:27:19.488Z,72.50
2019-03-06T07:29:52.078Z,72.10
2019-03-06T07:32:28.144Z,71.90
2019-03-06T07:35:37.517Z,71.70
2019-03-06T07:38:07.433Z,72.20
2019-03-06T07:40:53.905Z,71.50
2019-03-06T07:43:23.805Z,71.40
2019-03-06T07:45:56.823Z,71.10
2019-03-06T07:48:26.772Z,70.30
2019-03-06T07:51:13.173Z,70.20
2019-03-06T07:53:59.365Z,69.40
2019-03-06T07:56:29.393Z,68.90
2019-03-06T07:58:59.471Z,69.40
2019-03-06T08:01:30.905Z,69.90
2019-03-06T08:04:02.262Z,70.40
2019-03-06T08:06:30.599Z,70.30
2019-03-06T08:08:59.701Z,69.60
2019-03-06T08:11:45.556Z,68.70
2019-03-06T08:14:22.071Z,67.40
2019-03-06T08:16:47.041Z,67.80
2019-03-06T08:19:19.929Z,67.90
2019-03-06T08:21:49.787Z,67.60
2019-03-06T08:24:19.712Z,67.50
2019-03-06T08:26:47.949Z,67.70
2019-03-06T08:29:16.250Z,67.30
2019-03-06T08:31:46.157Z,67.90
2019-03-06T08:34:14.378Z,67.80
2019-03-06T08:36:45.385Z,66.50
2019-03-06T08:39:18.248Z,66.50
2019-03-06T08:44:14.521Z,65.10
2019-03-06T08:46:47.330Z,65.80
2019-03-06T08:49:33.491Z,65.50
2019-03-06T08:52:09.615Z,64.90
2019-03-06T08:54:51.588Z,65.50
2019-03-06T08:57:24.215Z,65.40
2019-03-06T09:00:10.558Z,65.50
2019-03-06T09:02:40.450Z,65.60
2019-03-06T09:05:16.893Z,65.50
2019-03-06T09:07:55.570Z,64.80
2019-03-06T09:10:31.458Z,64.00
2019-03-06T09:13:01.332Z,64.00
2019-03-06T09:15:40.341Z,64.10
2019-03-06T09:18:24.925Z,63.80
2019-03-06T09:20:57.532Z,63.40
2019-03-06T09:23:33.441Z,62.40
2019-03-06T09:26:18.690Z,62.10
2019-03-06T09:29:03.906Z,62.10
2019-03-06T09:31:39.344Z,61.50
2019-03-06T09:34:11.978Z,60.20
2019-03-06T09:36:41.856Z,59.60
2019-03-06T09:39:29.833Z,59.10
2019-03-06T09:41:59.708Z,59.30
2019-03-06T09:44:29.606Z,58.20
2019-03-06T09:47:15.965Z,57.70
2019-03-06T09:49:51.835Z,57.80
2019-03-06T09:52:21.707Z,58.00
2019-03-06T09:54:51.628Z,58.50
2019-03-06T09:57:24.462Z,58.20
2019-03-06T10:00:03.402Z,57.20
2019-03-06T10:02:39.533Z,56.60
2019-03-06T10:05:18.799Z,57.00
2019-03-06T10:07:54.977Z,56.60
2019-03-06T10:10:27.877Z,55.80
2019-03-06T10:13:03.875Z,55.90
2019-03-06T10:15:42.769Z,55.50
2019-03-06T10:18:12.964Z,54.30
2019-03-06T10:23:09.225Z,53.60
2019-03-06T10:25:37.549Z,53.10
2019-03-06T10:28:06.844Z,53.00
2019-03-06T10:30:35.409Z,52.60
2019-03-06T10:33:03.714Z,52.20
2019-03-06T10:35:31.983Z,52.60
2019-03-06T10:40:28.603Z,51.10
2019-03-06T10:42:57.096Z,51.90
2019-03-06T10:45:25.461Z,50.60
2019-03-06T10:47:53.874Z,51.20
2019-03-06T10:50:26.597Z,51.70
2019-03-06T10:52:52.859Z,50.20
2019-03-06T10:55:21.196Z,49.40
2019-03-06T10:57:49.846Z,49.80
2019-03-06T11:00:28.437Z,49.70
2019-03-06T11:02:57.092Z,49.80
2019-03-06T11:05:27.273Z,49.00
2019-03-06T11:07:56.046Z,47.50
2019-03-06T11:10:26.321Z,46.60
2019-03-06T11:12:54.864Z,45.70
2019-03-06T11:15:23.199Z,45.60
2019-03-06T11:17:51.839Z,45.40
2019-03-06T11:20:34.057Z,44.30
2019-03-06T11:23:04.905Z,43.60
2019-03-06T11:25:33.227Z,43.70
2019-03-06T11:28:01.542Z,43.80
2019-03-06T11:30:38.853Z,45.90
2019-03-06T11:33:09.140Z,44.20
2019-03-06T11:35:37.416Z,44.00
2019-03-06T11:38:05.905Z,43.50
2019-03-06T11:40:34.858Z,44.60
2019-03-06T11:43:03.336Z,43.10
2019-03-06T11:45:31.662Z,43.00
2019-03-06T11:47:59.937Z,43.00
2019-03-06T11:50:28.207Z,43.10
2019-03-06T11:52:56.464Z,43.50
2019-03-06T11:55:24.711Z,43.70
2019-03-06T11:57:53.023Z,43.90
2019-03-06T12:00:24.824Z,44.20
2019-03-06T12:02:53.275Z,43.90
2019-03-06T12:05:22.284Z,43.80
2019-03-06T12:07:50.672Z,43.70
2019-03-06T12:10:19.601Z,43.90
2019-03-06T12:12:48.031Z,42.90
2019-03-06T12:15:16.356Z,43.30
2019-03-06T12:17:44.619Z,44.20
2019-03-06T12:20:12.929Z,44.10
2019-03-06T12:22:41.182Z,44.10
2019-03-06T12:25:10.984Z,43.40
2019-03-06T12:27:39.419Z,44.20
2019-03-06T12:30:15.589Z,44.70
2019-03-06T12:32:45.561Z,44.50
2019-03-06T12:35:17.451Z,45.10
2019-03-06T12:37:47.225Z,45.10
2019-03-06T12:40:21.850Z,44.90
2019-03-06T12:42:50.173Z,44.90
2019-03-06T12:45:18.838Z,45.10
2019-03-06T12:48:01.753Z,45.20
2019-03-06T12:50:40.324Z,45.40
2019-03-06T12:53:08.575Z,45.60
2019-03-06T12:55:38.612Z,46.50
2019-03-06T12:58:06.876Z,45.50
2019-03-06T13:00:36.234Z,45.10
2019-03-06T13:03:04.873Z,44.70
2019-03-06T13:05:33.209Z,44.30
2019-03-06T13:08:01.594Z,44.40
2019-03-06T13:10:29.911Z,44.70
2019-03-06T13:12:58.240Z,44.60
2019-03-06T13:15:26.831Z,44.20
2019-03-06T13:17:55.659Z,44.50
2019-03-06T13:20:23.982Z,44.30
2019-03-06T13:22:53.754Z,44.40
2019-03-06T13:25:23.356Z,44.20
2019-03-06T13:27:54.886Z,44.50
2019-03-06T13:30:23.390Z,44.30
2019-03-06T13:33:05.347Z,43.90
2019-03-06T13:35:35.303Z,44.00
2019-03-06T13:38:03.544Z,43.60
2019-03-06T13:40:31.922Z,44.20
2019-03-06T13:43:00.547Z,44.30
2019-03-06T13:45:28.847Z,44.30
2019-03-06T13:47:57.284Z,44.10
2019-03-06T13:50:25.528Z,43.80
2019-03-06T13:52:53.793Z,44.20
2019-03-06T13:55:22.109Z,43.90
2019-03-06T13:57:50.409Z,44.20
2019-03-06T14:00:22.990Z,44.10
2019-03-06T14:02:53.055Z,44.20
2019-03-06T14:05:21.724Z,44.60
2019-03-06T14:07:56.383Z,44.50
2019-03-06T14:10:24.078Z,44.90
2019-03-06T14:12:52.743Z,44.60
2019-03-06T14:15:21.234Z,44.40
2019-03-06T14:17:49.561Z,44.40
2019-03-06T14:20:19.712Z,42.70
2019-03-06T14:22:48.039Z,42.90
2019-03-06T14:25:16.538Z,55.40
2019-03-06T14:27:45.261Z,41.70
2019-03-06T14:30:21.819Z,41.80
2019-03-06T14:32:50.210Z,42.20
2019-03-06T14:35:20.178Z,42.10
2019-03-06T14:37:48.507Z,42.20
2019-03-06T14:40:31.104Z,41.90
2019-03-06T14:42:59.969Z,41.80
2019-03-06T14:45:28.263Z,41.30
2019-03-06T14:47:56.583Z,41.40
2019-03-06T14:50:24.836Z,41.60
2019-03-06T14:52:53.190Z,41.90
2019-03-06T14:55:21.564Z,42.50
2019-03-06T14:57:49.832Z,42.00
2019-03-06T15:00:20.225Z,42.20
2019-03-06T15:02:48.478Z,42.40
2019-03-06T15:05:17.746Z,42.50
2019-03-06T15:07:46.246Z,43.80
2019-03-06T15:10:18.065Z,42.70
2019-03-06T15:12:46.518Z,43.90
2019-03-06T15:15:19.958Z,43.30
2019-03-06T15:17:48.537Z,43.70
2019-03-06T15:20:21.241Z,43.90
2019-03-06T15:22:51.880Z,44.20
2019-03-06T15:25:21.827Z,44.40
2019-03-06T15:27:50.120Z,44.80
2019-03-06T15:30:19.138Z,45.20
2019-03-06T15:32:47.555Z,46.20
2019-03-06T15:35:16.219Z,46.20
2019-03-06T15:37:45.429Z,46.40
2019-03-06T15:40:29.054Z,46.60
2019-03-06T15:42:57.456Z,46.70
2019-03-06T15:45:30.085Z,47.30
2019-03-06T15:47:59.476Z,47.40
2019-03-06T15:50:27.931Z,47.40
2019-03-06T15:52:56.419Z,47.70
2019-03-06T15:55:27.088Z,47.80
2019-03-06T15:57:55.345Z,48.10
2019-03-06T16:00:45.767Z,47.80
2019-03-06T16:03:10.933Z,47.60
2019-03-06T16:05:39.277Z,48.10
2019-03-06T16:08:08.623Z,48.10
2019-03-06T16:10:36.946Z,48.70
2019-03-06T16:13:05.588Z,48.60
2019-03-06T16:15:33.940Z,49.00
2019-03-06T16:18:04.082Z,49.30
2019-03-06T16:20:32.331Z,49.40
2019-03-06T16:23:00.595Z,49.80
2019-03-06T16:25:36.323Z,50.00
2019-03-06T16:27:58.807Z,50.00
2019-03-06T16:30:28.245Z,50.10
2019-03-06T16:32:56.620Z,50.40
2019-03-06T16:35:24.927Z,50.70
2019-03-06T16:37:53.194Z,50.90
2019-03-06T16:40:25.082Z,51.30
2019-03-06T16:42:53.639Z,51.20
2019-03-06T16:45:24.247Z,51.20
2019-03-06T16:47:52.611Z,51.60
2019-03-06T16:50:21.321Z,51.30
2019-03-06T16:52:49.649Z,52.10
2019-03-06T16:55:19.191Z,51.80
2019-03-06T16:57:48.446Z,52.10
2019-03-06T17:00:22.435Z,52.10
2019-03-06T17:02:50.887Z,51.90
2019-03-06T17:05:20.131Z,52.00
2019-03-06T17:07:49.423Z,52.00
2019-03-06T17:10:19.214Z,52.00
2019-03-06T17:12:47.530Z,52.00
2019-03-06T17:15:17.142Z,52.10
2019-03-06T17:17:45.498Z,52.10
2019-03-06T17:20:16.921Z,52.10
2019-03-06T17:22:45.446Z,52.20
2019-03-06T17:25:13.709Z,52.30
2019-03-06T17:27:42.133Z,52.50
2019-03-06T17:30:16.102Z,52.60
2019-03-06T17:32:55.434Z,52.70
2019-03-06T17:35:24.180Z,52.80
2019-03-06T17:37:52.616Z,53.00
2019-03-06T17:40:20.948Z,53.10
2019-03-06T17:42:49.276Z,53.30
2019-03-06T17:45:17.540Z,53.40
2019-03-06T17:47:45.797Z,53.50
2019-03-06T17:50:15.874Z,53.40
2019-03-06T17:52:44.367Z,53.80
2019-03-06T17:55:13.279Z,53.80
2019-03-06T17:57:41.591Z,53.90
2019-03-06T18:00:19.766Z,54.00
2019-03-06T18:02:48.027Z,54.10
2019-03-06T18:05:16.323Z,54.30
2019-03-06T18:07:44.640Z,54.50
2019-03-06T18:10:17.542Z,55.00
2019-03-06T18:12:45.935Z,54.50
2019-03-06T18:15:16.024Z,54.60
2019-03-06T18:17:44.526Z,54.60
2019-03-06T18:20:15.012Z,54.70
2019-03-06T18:22:43.327Z,54.80
2019-03-06T18:25:20.594Z,55.10
2019-03-06T18:27:48.858Z,55.20
2019-03-06T18:30:20.321Z,55.10
2019-03-06T18:32:48.660Z,55.30
2019-03-06T18:35:19.011Z,55.60
2019-03-06T18:37:47.440Z,55.70
2019-03-06T18:40:22.769Z,55.80
2019-03-06T18:42:51.112Z,56.00
2019-03-06T18:45:20.575Z,56.10
2019-03-06T18:47:48.975Z,56.20
2019-03-06T18:50:23.968Z,56.10
2019-03-06T18:52:52.285Z,56.40
2019-03-06T18:55:20.771Z,56.30
2019-03-06T18:57:49.169Z,56.60
2019-03-06T19:00:20.143Z,56.50
2019-03-06T19:02:48.467Z,56.50
2019-03-06T19:05:17.728Z,56.50
2019-03-06T19:07:46.065Z,56.70
2019-03-06T19:10:24.836Z,56.90
2019-03-06T19:12:53.433Z,56.80
2019-03-06T19:15:23.329Z,57.60
2019-03-06T19:17:51.584Z,56.90
2019-03-06T19:20:20.468Z,56.80
2019-03-06T19:22:48.888Z,56.50
2019-03-06T19:25:17.334Z,56.40
2019-03-06T19:27:45.999Z,56.50
2019-03-06T19:30:17.588Z,56.60
2019-03-06T19:32:45.895Z,56.50
2019-03-06T19:35:14.517Z,56.50
2019-03-06T19:37:42.842Z,56.50
2019-03-06T19:40:12.937Z,56.20
2019-03-06T19:42:41.493Z,55.40
2019-03-06T19:45:15.434Z,54.50
2019-03-06T19:47:43.766Z,54.20
2019-03-06T19:50:17.358Z,54.40
2019-03-06T19:52:45.694Z,53.80
2019-03-06T19:55:15.439Z,53.50
2019-03-06T19:57:49.114Z,53.50
2019-03-06T20:00:17.561Z,52.90
2019-03-06T20:02:45.825Z,53.00
2019-03-06T20:05:14.175Z,53.30
2019-03-06T20:07:42.421Z,53.50
2019-03-06T20:10:10.691Z,53.00
2019-03-06T20:12:39.125Z,53.10
2019-03-06T20:15:10.225Z,52.90
2019-03-06T20:17:38.465Z,52.80
2019-03-06T20:20:12.171Z,52.20
2019-03-06T20:22:40.493Z,52.20
2019-03-06T20:25:10.421Z,50.90
2019-03-06T20:27:38.829Z,51.60
2019-03-06T20:30:15.525Z,50.80
2019-03-06T20:32:43.844Z,51.10
2019-03-06T20:35:12.198Z,50.90
2019-03-06T20:37:40.525Z,50.20
2019-03-06T20:40:11.804Z,50.00
2019-03-06T20:42:40.166Z,50.10
2019-03-06T20:45:10.489Z,50.10
2019-03-06T20:47:38.886Z,49.80
2019-03-06T20:50:09.641Z,49.60
2019-03-06T20:52:38.005Z,50.00
2019-03-06T20:55:08.259Z,49.50
2019-03-06T20:57:36.515Z,49.20
2019-03-06T21:00:21.377Z,49.60
2019-03-06T21:02:49.747Z,49.40
2019-03-06T21:05:18.072Z,49.00
2019-03-06T21:07:46.426Z,48.40
2019-03-06T21:10:16.940Z,48.90
2019-03-06T21:12:45.182Z,48.70
2019-03-06T21:15:15.764Z,47.60
2019-03-06T21:17:44.039Z,46.80
2019-03-06T21:20:14.417Z,47.40
2019-03-06T21:22:42.711Z,46.40
2019-03-06T21:25:13.504Z,46.40
2019-03-06T21:27:41.742Z,46.50
2019-03-06T21:30:20.850Z,46.10
2019-03-06T21:32:49.389Z,46.10
2019-03-06T21:35:17.747Z,45.80
2019-03-06T21:37:46.054Z,45.60
2019-03-06T21:40:14.370Z,45.70
2019-03-06T21:42:42.630Z,45.50
2019-03-06T21:45:12.293Z,45.90
2019-03-06T21:47:40.616Z,46.20
2019-03-06T21:50:11.515Z,46.50
2019-03-06T21:52:39.948Z,46.30
2019-03-06T21:55:11.398Z,45.60
2019-03-06T21:57:39.710Z,46.00
2019-03-06T22:00:19.772Z,45.80
2019-03-06T22:02:48.091Z,45.70
2019-03-06T22:05:16.423Z,45.60
2019-03-06T22:07:44.773Z,45.30
2019-03-06T22:10:16.221Z,45.20
2019-03-06T22:12:44.249Z,45.20
2019-03-06T22:15:15.567Z,45.20
2019-03-06T22:17:43.891Z,45.20
2019-03-06T22:20:13.601Z,44.90
2019-03-06T22:22:41.930Z,45.00
2019-03-06T22:25:12.514Z,44.90
2019-03-06T22:27:40.967Z,45.00
2019-03-06T22:30:15.018Z,45.00
2019-03-06T22:32:43.274Z,45.10
2019-03-06T22:35:11.537Z,45.40
2019-03-06T22:37:39.969Z,45.70
2019-03-06T22:40:14.671Z,45.70
2019-03-06T22:42:42.916Z,45.50
2019-03-06T22:45:14.018Z,45.80
2019-03-06T22:47:42.317Z,45.50
2019-03-06T22:50:12.883Z,45.60
2019-03-06T22:52:41.242Z,45.60
2019-03-06T22:55:15.118Z,45.60
2019-03-06T22:57:43.443Z,45.60
2019-03-06T23:00:20.843Z,45.40
2019-03-06T23:02:49.199Z,45.60
2019-03-06T23:05:17.549Z,45.70
2019-03-06T23:07:45.789Z,45.60
2019-03-06T23:10:14.110Z,45.50
2019-03-06T23:12:42.360Z,45.40
2019-03-06T23:15:10.702Z,45.20
2019-03-06T23:17:39.002Z,45.10
2019-03-06T23:20:08.544Z,45.50
2019-03-06T23:22:36.825Z,45.20
2019-03-06T23:25:06.014Z,45.30
2019-03-06T23:27:34.304Z,45.00
2019-03-06T23:30:02.573Z,45.10
2019-03-06T23:32:30.891Z,45.10
2019-03-06T23:34:59.174Z,45.10
2019-03-06T23:37:27.430Z,45.00
2019-03-06T23:39:55.666Z,45.30
2019-03-06T23:42:23.914Z,45.30
2019-03-06T23:44:52.161Z,45.40
2019-03-06T23:47:20.442Z,45.10
2019-03-06T23:49:48.671Z,45.20
2019-03-06T23:52:18.754Z,45.10
2019-03-06T23:54:47.071Z,45.20
2019-03-06T23:57:15.409Z,45.30
2019-03-06T23:59:43.753Z,45.10
